sensor_id;sensor_type;location;lat;lon;timestamp;pressure;altitude;pressure_sealevel;temperature;humidity
46846;BME280;33947;46.804;134.252;2023-07-28T00:00:01;100303.41;;;30.48;74.38
46846;BME280;33947;46.804;134.252;2023-07-28T00:03:12;100297.28;;;31.32;70.59
46846;BME280;33947;46.804;134.252;2023-07-28T00:06:17;100296.72;;;32.14;68.30
46846;BME280;33947;46.804;134.252;2023-07-28T00:09:21;100306.19;;;32.56;65.34
46846;BME280;33947;46.804;134.252;2023-07-28T00:12:31;100301.75;;;32.40;63.51
46846;BME280;33947;46.804;134.252;2023-07-28T00:15:36;100290.81;;;31.87;66.75
46846;BME280;33947;46.804;134.252;2023-07-28T00:18:40;100297.06;;;31.81;67.76
46846;BME280;33947;46.804;134.252;2023-07-28T00:21:45;100293.06;;;32.73;64.41
46846;BME280;33947;46.804;134.252;2023-07-28T00:24:49;100294.44;;;33.43;62.17
46846;BME280;33947;46.804;134.252;2023-07-28T00:27:55;100303.84;;;33.33;61.98
46846;BME280;33947;46.804;134.252;2023-07-28T00:31:01;100296.44;;;33.12;62.50
46846;BME280;33947;46.804;134.252;2023-07-28T00:34:05;100296.44;;;32.90;62.11
46846;BME280;33947;46.804;134.252;2023-07-28T00:37:09;100299.66;;;32.42;63.92
46846;BME280;33947;46.804;134.252;2023-07-28T00:46:18;100285.56;;;31.15;64.87
46846;BME280;33947;46.804;134.252;2023-07-28T00:49:24;100306.31;;;30.86;66.05
46846;BME280;33947;46.804;134.252;2023-07-28T00:52:29;100305.16;;;30.41;67.77
46846;BME280;33947;46.804;134.252;2023-07-28T00:55:33;100324.84;;;29.80;69.26
46846;BME280;33947;46.804;134.252;2023-07-28T00:58:38;100331.69;;;29.51;72.17
46846;BME280;33947;46.804;134.252;2023-07-28T01:01:43;100326.56;;;29.48;72.59
46846;BME280;33947;46.804;134.252;2023-07-28T01:04:48;100334.66;;;28.98;72.55
46846;BME280;33947;46.804;134.252;2023-07-28T01:08:01;100334.97;;;28.86;73.29
46846;BME280;33947;46.804;134.252;2023-07-28T01:11:07;100338.47;;;29.13;73.63
46846;BME280;33947;46.804;134.252;2023-07-28T01:14:12;100331.63;;;29.17;73.07
46846;BME280;33947;46.804;134.252;2023-07-28T01:17:16;100338.47;;;29.22;74.21
46846;BME280;33947;46.804;134.252;2023-07-28T01:20:24;100337.38;;;28.98;74.51
46846;BME280;33947;46.804;134.252;2023-07-28T01:26:57;100337.56;;;28.96;73.94
46846;BME280;33947;46.804;134.252;2023-07-28T01:30:02;100337.56;;;28.96;73.91
46846;BME280;33947;46.804;134.252;2023-07-28T01:37:46;100343.47;;;29.43;73.04
46846;BME280;33947;46.804;134.252;2023-07-28T01:40:54;100338.59;;;29.03;74.54
46846;BME280;33947;46.804;134.252;2023-07-28T01:43:59;100357.28;;;29.33;74.05
46846;BME280;33947;46.804;134.252;2023-07-28T01:47:03;100363.63;;;29.25;73.99
46846;BME280;33947;46.804;134.252;2023-07-28T01:50:08;100356.13;;;29.94;70.86
46846;BME280;33947;46.804;134.252;2023-07-28T01:53:12;100351.47;;;30.27;69.44
46846;BME280;33947;46.804;134.252;2023-07-28T01:56:17;100350.41;;;30.37;68.69
46846;BME280;33947;46.804;134.252;2023-07-28T01:59:22;100349.84;;;30.50;69.64
46846;BME280;33947;46.804;134.252;2023-07-28T02:02:26;100330.13;;;30.63;70.47
46846;BME280;33947;46.804;134.252;2023-07-28T02:05:31;100317.06;;;30.16;69.78
46846;BME280;33947;46.804;134.252;2023-07-28T02:08:35;100315.41;;;29.82;72.07
46846;BME280;33947;46.804;134.252;2023-07-28T02:11:39;100311.44;;;30.18;70.65
46846;BME280;33947;46.804;134.252;2023-07-28T02:14:43;100316.47;;;31.09;68.31
46846;BME280;33947;46.804;134.252;2023-07-28T02:17:48;100313.22;;;30.82;67.52
46846;BME280;33947;46.804;134.252;2023-07-28T02:20:57;100309.44;;;30.83;68.50
46846;BME280;33947;46.804;134.252;2023-07-28T02:24:02;100314.88;;;30.52;69.43
46846;BME280;33947;46.804;134.252;2023-07-28T02:27:06;100307.69;;;30.02;69.33
46846;BME280;33947;46.804;134.252;2023-07-28T02:30:11;100311.09;;;29.96;71.09
46846;BME280;33947;46.804;134.252;2023-07-28T02:33:16;100317.09;;;29.83;72.03
46846;BME280;33947;46.804;134.252;2023-07-28T02:36:24;100309.94;;;29.74;72.28
46846;BME280;33947;46.804;134.252;2023-07-28T02:39:28;100307.22;;;29.49;71.97
46846;BME280;33947;46.804;134.252;2023-07-28T02:42:32;100296.81;;;29.44;72.62
46846;BME280;33947;46.804;134.252;2023-07-28T02:45:39;100286.88;;;29.43;71.90
46846;BME280;33947;46.804;134.252;2023-07-28T02:48:43;100298.00;;;29.42;72.27
46846;BME280;33947;46.804;134.252;2023-07-28T02:51:48;100297.63;;;29.45;72.18
46846;BME280;33947;46.804;134.252;2023-07-28T02:54:52;100292.69;;;29.57;72.12
46846;BME280;33947;46.804;134.252;2023-07-28T02:57:57;100294.53;;;30.86;69.13
46846;BME280;33947;46.804;134.252;2023-07-28T03:01:01;100295.69;;;30.92;67.06
46846;BME280;33947;46.804;134.252;2023-07-28T03:04:11;100300.16;;;30.93;68.26
46846;BME280;33947;46.804;134.252;2023-07-28T03:07:38;100277.81;;;30.72;68.16
46846;BME280;33947;46.804;134.252;2023-07-28T03:10:44;100284.28;;;30.40;69.50
46846;BME280;33947;46.804;134.252;2023-07-28T03:13:49;100283.91;;;30.03;70.66
46846;BME280;33947;46.804;134.252;2023-07-28T03:16:53;100278.44;;;29.95;71.54
46846;BME280;33947;46.804;134.252;2023-07-28T03:19:58;100258.72;;;30.08;70.71
46846;BME280;33947;46.804;134.252;2023-07-28T03:23:04;100266.06;;;30.47;69.33
46846;BME280;33947;46.804;134.252;2023-07-28T03:26:09;100246.78;;;30.95;67.64
46846;BME280;33947;46.804;134.252;2023-07-28T03:29:16;100256.88;;;31.03;66.84
46846;BME280;33947;46.804;134.252;2023-07-28T03:32:22;100261.66;;;31.47;65.06
46846;BME280;33947;46.804;134.252;2023-07-28T03:35:29;100257.28;;;31.76;63.82
46846;BME280;33947;46.804;134.252;2023-07-28T03:38:42;100243.78;;;31.52;64.96
46846;BME280;33947;46.804;134.252;2023-07-28T03:41:47;100243.31;;;31.48;65.11
46846;BME280;33947;46.804;134.252;2023-07-28T03:44:52;100241.88;;;31.37;65.18
46846;BME280;33947;46.804;134.252;2023-07-28T03:47:56;100247.22;;;31.07;65.91
46846;BME280;33947;46.804;134.252;2023-07-28T03:51:00;100252.06;;;31.28;64.83
46846;BME280;33947;46.804;134.252;2023-07-28T03:54:05;100229.16;;;31.21;63.77
46846;BME280;33947;46.804;134.252;2023-07-28T03:57:10;100263.97;;;31.74;63.45
46846;BME280;33947;46.804;134.252;2023-07-28T04:00:15;100277.91;;;31.72;63.64
46846;BME280;33947;46.804;134.252;2023-07-28T04:03:22;100267.63;;;31.89;63.67
46846;BME280;33947;46.804;134.252;2023-07-28T04:09:49;100267.84;;;31.65;63.61
46846;BME280;33947;46.804;134.252;2023-07-28T04:12:53;100270.88;;;31.08;63.57
46846;BME280;33947;46.804;134.252;2023-07-28T04:15:57;100237.66;;;30.80;65.21
46846;BME280;33947;46.804;134.252;2023-07-28T04:19:02;100253.47;;;31.24;64.90
46846;BME280;33947;46.804;134.252;2023-07-28T04:22:07;100252.34;;;31.33;64.82
46846;BME280;33947;46.804;134.252;2023-07-28T04:25:12;100244.03;;;31.27;64.32
46846;BME280;33947;46.804;134.252;2023-07-28T04:28:21;100253.09;;;31.04;65.13
46846;BME280;33947;46.804;134.252;2023-07-28T04:31:28;100249.25;;;30.90;65.48
46846;BME280;33947;46.804;134.252;2023-07-28T04:34:46;100238.56;;;30.95;65.81
46846;BME280;33947;46.804;134.252;2023-07-28T04:37:54;100263.69;;;31.07;65.65
46846;BME280;33947;46.804;134.252;2023-07-28T04:41:10;100254.47;;;30.77;65.95
46846;BME280;33947;46.804;134.252;2023-07-28T04:44:24;100254.88;;;30.65;66.38
46846;BME280;33947;46.804;134.252;2023-07-28T04:47:34;100243.59;;;30.60;65.94
46846;BME280;33947;46.804;134.252;2023-07-28T04:50:40;100225.84;;;30.16;67.27
46846;BME280;33947;46.804;134.252;2023-07-28T04:54:14;100262.34;;;30.40;67.29
46846;BME280;33947;46.804;134.252;2023-07-28T04:57:19;100254.69;;;30.27;67.33
46846;BME280;33947;46.804;134.252;2023-07-28T05:00:24;100245.69;;;30.10;67.63
46846;BME280;33947;46.804;134.252;2023-07-28T05:03:28;100265.84;;;30.25;68.07
46846;BME280;33947;46.804;134.252;2023-07-28T05:06:42;100256.75;;;30.33;67.80
46846;BME280;33947;46.804;134.252;2023-07-28T05:09:46;100264.84;;;30.18;68.68
46846;BME280;33947;46.804;134.252;2023-07-28T05:12:52;100249.06;;;30.28;67.85
46846;BME280;33947;46.804;134.252;2023-07-28T05:15:56;100256.59;;;30.26;67.86
46846;BME280;33947;46.804;134.252;2023-07-28T05:19:19;100254.50;;;30.37;67.64
46846;BME280;33947;46.804;134.252;2023-07-28T05:22:30;100259.66;;;30.71;66.45
46846;BME280;33947;46.804;134.252;2023-07-28T05:25:34;100249.47;;;30.80;66.48
46846;BME280;33947;46.804;134.252;2023-07-28T05:28:39;100252.13;;;30.97;66.46
46846;BME280;33947;46.804;134.252;2023-07-28T05:31:43;100253.81;;;30.98;65.78
46846;BME280;33947;46.804;134.252;2023-07-28T05:34:57;100257.38;;;31.07;65.89
46846;BME280;33947;46.804;134.252;2023-07-28T05:38:02;100243.50;;;31.00;65.51
46846;BME280;33947;46.804;134.252;2023-07-28T05:41:06;100246.50;;;31.13;65.17
46846;BME280;33947;46.804;134.252;2023-07-28T05:44:11;100214.47;;;31.05;64.86
46846;BME280;33947;46.804;134.252;2023-07-28T05:47:15;100240.91;;;31.07;64.86
46846;BME280;33947;46.804;134.252;2023-07-28T05:50:20;100226.66;;;30.56;66.17
46846;BME280;33947;46.804;134.252;2023-07-28T05:53:25;100242.22;;;30.56;66.50
46846;BME280;33947;46.804;134.252;2023-07-28T05:56:36;100232.25;;;30.71;65.80
46846;BME280;33947;46.804;134.252;2023-07-28T05:59:41;100198.13;;;30.42;66.15
46846;BME280;33947;46.804;134.252;2023-07-28T06:02:45;100209.91;;;30.51;65.96
46846;BME280;33947;46.804;134.252;2023-07-28T06:06:09;100195.06;;;30.69;65.09
46846;BME280;33947;46.804;134.252;2023-07-28T06:09:14;100224.63;;;31.05;65.06
46846;BME280;33947;46.804;134.252;2023-07-28T06:12:19;100243.94;;;31.12;66.23
46846;BME280;33947;46.804;134.252;2023-07-28T06:15:23;100247.97;;;30.78;65.55
46846;BME280;33947;46.804;134.252;2023-07-28T06:18:27;100233.44;;;30.92;65.98
46846;BME280;33947;46.804;134.252;2023-07-28T06:21:54;100230.47;;;31.02;65.28
46846;BME280;33947;46.804;134.252;2023-07-28T06:24:59;100232.84;;;31.05;65.95
46846;BME280;33947;46.804;134.252;2023-07-28T06:28:04;100241.81;;;30.99;65.91
46846;BME280;33947;46.804;134.252;2023-07-28T06:31:10;100248.25;;;30.83;66.61
46846;BME280;33947;46.804;134.252;2023-07-28T06:34:14;100248.19;;;30.68;66.75
46846;BME280;33947;46.804;134.252;2023-07-28T06:37:19;100234.22;;;30.46;66.91
46846;BME280;33947;46.804;134.252;2023-07-28T06:40:24;100203.91;;;30.16;68.17
46846;BME280;33947;46.804;134.252;2023-07-28T06:43:29;100201.84;;;30.18;67.74
46846;BME280;33947;46.804;134.252;2023-07-28T06:46:36;100221.16;;;30.25;68.36
46846;BME280;33947;46.804;134.252;2023-07-28T06:49:44;100236.38;;;30.59;67.61
46846;BME280;33947;46.804;134.252;2023-07-28T06:52:48;100248.59;;;30.48;67.63
46846;BME280;33947;46.804;134.252;2023-07-28T06:55:57;100251.28;;;30.33;67.83
46846;BME280;33947;46.804;134.252;2023-07-28T06:59:01;100251.16;;;30.18;68.08
46846;BME280;33947;46.804;134.252;2023-07-28T07:02:17;100245.88;;;30.00;68.13
46846;BME280;33947;46.804;134.252;2023-07-28T07:05:22;100258.59;;;29.84;68.65
46846;BME280;33947;46.804;134.252;2023-07-28T07:08:28;100249.22;;;29.79;69.06
46846;BME280;33947;46.804;134.252;2023-07-28T07:11:32;100257.75;;;29.67;69.57
46846;BME280;33947;46.804;134.252;2023-07-28T07:14:37;100251.25;;;29.68;70.61
46846;BME280;33947;46.804;134.252;2023-07-28T07:17:42;100244.41;;;29.72;71.22
46846;BME280;33947;46.804;134.252;2023-07-28T07:20:46;100262.75;;;29.47;73.18
46846;BME280;33947;46.804;134.252;2023-07-28T07:23:51;100259.66;;;29.09;75.62
46846;BME280;33947;46.804;134.252;2023-07-28T07:27:01;100255.72;;;29.20;74.03
46846;BME280;33947;46.804;134.252;2023-07-28T07:30:06;100231.13;;;29.03;74.22
46846;BME280;33947;46.804;134.252;2023-07-28T07:33:10;100241.03;;;29.12;73.82
46846;BME280;33947;46.804;134.252;2023-07-28T07:36:16;100216.41;;;28.96;73.73
46846;BME280;33947;46.804;134.252;2023-07-28T07:39:21;100214.19;;;28.91;73.43
46846;BME280;33947;46.804;134.252;2023-07-28T07:42:25;100225.13;;;28.91;75.26
46846;BME280;33947;46.804;134.252;2023-07-28T07:45:33;100236.78;;;29.18;72.04
46846;BME280;33947;46.804;134.252;2023-07-28T07:48:37;100241.53;;;28.91;72.63
46846;BME280;33947;46.804;134.252;2023-07-28T07:51:42;100252.22;;;28.68;71.70
46846;BME280;33947;46.804;134.252;2023-07-28T07:54:47;100244.31;;;28.56;71.51
46846;BME280;33947;46.804;134.252;2023-07-28T07:57:52;100247.38;;;28.45;72.84
46846;BME280;33947;46.804;134.252;2023-07-28T08:00:57;100223.09;;;28.34;74.77
46846;BME280;33947;46.804;134.252;2023-07-28T08:04:01;100229.03;;;28.21;77.86
46846;BME280;33947;46.804;134.252;2023-07-28T08:07:06;100228.03;;;28.38;75.52
46846;BME280;33947;46.804;134.252;2023-07-28T08:10:10;100222.34;;;28.15;78.27
46846;BME280;33947;46.804;134.252;2023-07-28T08:13:14;100209.22;;;28.19;76.60
46846;BME280;33947;46.804;134.252;2023-07-28T08:16:19;100218.31;;;28.27;76.38
46846;BME280;33947;46.804;134.252;2023-07-28T08:19:23;100214.69;;;28.27;76.95
46846;BME280;33947;46.804;134.252;2023-07-28T08:22:28;100215.41;;;28.37;76.52
46846;BME280;33947;46.804;134.252;2023-07-28T08:25:33;100227.91;;;28.40;76.24
46846;BME280;33947;46.804;134.252;2023-07-28T08:28:38;100217.09;;;28.30;76.68
46846;BME280;33947;46.804;134.252;2023-07-28T08:31:42;100202.19;;;28.16;76.72
46846;BME280;33947;46.804;134.252;2023-07-28T08:34:47;100230.19;;;28.18;76.22
46846;BME280;33947;46.804;134.252;2023-07-28T08:37:51;100231.31;;;28.42;75.60
46846;BME280;33947;46.804;134.252;2023-07-28T08:40:57;100227.75;;;28.50;75.59
46846;BME280;33947;46.804;134.252;2023-07-28T08:44:05;100230.31;;;28.59;75.12
46846;BME280;33947;46.804;134.252;2023-07-28T08:47:11;100225.88;;;28.58;75.40
46846;BME280;33947;46.804;134.252;2023-07-28T08:50:15;100220.38;;;28.34;75.57
46846;BME280;33947;46.804;134.252;2023-07-28T08:53:20;100213.34;;;28.31;75.97
46846;BME280;33947;46.804;134.252;2023-07-28T08:56:33;100234.00;;;28.25;76.64
46846;BME280;33947;46.804;134.252;2023-07-28T08:59:38;100223.88;;;28.17;76.83
46846;BME280;33947;46.804;134.252;2023-07-28T09:02:49;100223.66;;;28.11;76.79
46846;BME280;33947;46.804;134.252;2023-07-28T09:06:01;100230.78;;;28.03;77.48
46846;BME280;33947;46.804;134.252;2023-07-28T09:09:07;100238.13;;;28.03;78.18
46846;BME280;33947;46.804;134.252;2023-07-28T09:12:12;100239.66;;;27.97;78.38
46846;BME280;33947;46.804;134.252;2023-07-28T09:15:17;100242.69;;;27.94;78.47
46846;BME280;33947;46.804;134.252;2023-07-28T09:18:25;100234.84;;;27.91;78.89
46846;BME280;33947;46.804;134.252;2023-07-28T09:21:32;100223.56;;;27.86;79.23
46846;BME280;33947;46.804;134.252;2023-07-28T09:24:38;100225.97;;;27.89;79.10
46846;BME280;33947;46.804;134.252;2023-07-28T09:27:51;100243.19;;;27.90;79.41
46846;BME280;33947;46.804;134.252;2023-07-28T09:30:56;100230.88;;;27.85;79.25
46846;BME280;33947;46.804;134.252;2023-07-28T09:34:00;100233.25;;;27.80;79.17
46846;BME280;33947;46.804;134.252;2023-07-28T09:37:08;100230.47;;;27.72;79.18
46846;BME280;33947;46.804;134.252;2023-07-28T09:40:15;100247.69;;;27.72;79.80
46846;BME280;33947;46.804;134.252;2023-07-28T09:43:21;100233.66;;;27.67;79.99
46846;BME280;33947;46.804;134.252;2023-07-28T09:46:28;100233.06;;;27.55;79.91
46846;BME280;33947;46.804;134.252;2023-07-28T09:49:39;100225.91;;;27.36;80.57
46846;BME280;33947;46.804;134.252;2023-07-28T09:52:47;100200.88;;;27.14;80.86
46846;BME280;33947;46.804;134.252;2023-07-28T09:55:55;100228.81;;;27.35;80.37
46846;BME280;33947;46.804;134.252;2023-07-28T09:59:01;100236.41;;;27.23;80.89
46846;BME280;33947;46.804;134.252;2023-07-28T10:02:08;100230.69;;;27.16;81.58
46846;BME280;33947;46.804;134.252;2023-07-28T10:05:14;100218.97;;;26.97;81.80
46846;BME280;33947;46.804;134.252;2023-07-28T10:08:19;100229.72;;;26.99;82.21
46846;BME280;33947;46.804;134.252;2023-07-28T10:11:25;100243.13;;;26.92;82.81
46846;BME280;33947;46.804;134.252;2023-07-28T10:14:35;100242.47;;;26.80;83.49
46846;BME280;33947;46.804;134.252;2023-07-28T10:17:48;100240.88;;;26.78;82.96
46846;BME280;33947;46.804;134.252;2023-07-28T10:20:54;100236.13;;;26.80;82.84
46846;BME280;33947;46.804;134.252;2023-07-28T10:23:58;100237.84;;;26.81;81.89
46846;BME280;33947;46.804;134.252;2023-07-28T10:27:03;100253.34;;;26.80;81.31
46846;BME280;33947;46.804;134.252;2023-07-28T10:30:13;100255.84;;;26.73;81.12
46846;BME280;33947;46.804;134.252;2023-07-28T10:36:38;100259.91;;;26.41;83.45
46846;BME280;33947;46.804;134.252;2023-07-28T10:39:43;100277.38;;;26.11;85.11
46846;BME280;33947;46.804;134.252;2023-07-28T10:42:48;100271.91;;;26.21;84.40
46846;BME280;33947;46.804;134.252;2023-07-28T10:45:54;100273.75;;;26.20;84.84
46846;BME280;33947;46.804;134.252;2023-07-28T10:49:04;100270.50;;;26.17;85.13
46846;BME280;33947;46.804;134.252;2023-07-28T10:52:10;100279.78;;;26.14;85.60
46846;BME280;33947;46.804;134.252;2023-07-28T10:55:20;100222.34;;;25.79;86.27
46846;BME280;33947;46.804;134.252;2023-07-28T10:58:25;100269.94;;;26.03;86.36
46846;BME280;33947;46.804;134.252;2023-07-28T11:01:37;100254.41;;;25.85;85.61
46846;BME280;33947;46.804;134.252;2023-07-28T11:04:46;100289.44;;;25.98;85.99
46846;BME280;33947;46.804;134.252;2023-07-28T11:08:00;100279.28;;;25.91;86.67
46846;BME280;33947;46.804;134.252;2023-07-28T11:11:06;100283.47;;;25.85;87.02
46846;BME280;33947;46.804;134.252;2023-07-28T11:14:11;100286.19;;;25.85;87.18
46846;BME280;33947;46.804;134.252;2023-07-28T11:17:15;100286.78;;;25.79;87.88
46846;BME280;33947;46.804;134.252;2023-07-28T11:20:22;100279.19;;;25.82;87.30
46846;BME280;33947;46.804;134.252;2023-07-28T11:23:27;100287.19;;;25.84;87.69
46846;BME280;33947;46.804;134.252;2023-07-28T11:26:34;100291.22;;;25.80;87.83
46846;BME280;33947;46.804;134.252;2023-07-28T11:29:40;100288.66;;;25.68;87.98
46846;BME280;33947;46.804;134.252;2023-07-28T11:32:51;100279.69;;;25.58;88.32
46846;BME280;33947;46.804;134.252;2023-07-28T11:35:56;100282.22;;;25.69;88.08
46846;BME280;33947;46.804;134.252;2023-07-28T11:39:00;100270.06;;;25.64;87.86
46846;BME280;33947;46.804;134.252;2023-07-28T11:42:09;100268.22;;;25.64;87.89
46846;BME280;33947;46.804;134.252;2023-07-28T11:45:16;100283.94;;;25.70;88.31
46846;BME280;33947;46.804;134.252;2023-07-28T11:48:22;100251.63;;;25.48;88.11
46846;BME280;33947;46.804;134.252;2023-07-28T11:51:26;100280.81;;;25.65;88.26
46846;BME280;33947;46.804;134.252;2023-07-28T11:54:32;100284.81;;;25.61;88.68
46846;BME280;33947;46.804;134.252;2023-07-28T11:57:36;100283.38;;;25.57;89.19
46846;BME280;33947;46.804;134.252;2023-07-28T12:00:41;100287.09;;;25.56;89.20
46846;BME280;33947;46.804;134.252;2023-07-28T12:03:46;100286.69;;;25.51;89.50
46846;BME280;33947;46.804;134.252;2023-07-28T12:07:32;100279.94;;;25.35;90.19
46846;BME280;33947;46.804;134.252;2023-07-28T12:10:37;100262.63;;;25.26;90.26
46846;BME280;33947;46.804;134.252;2023-07-28T12:14:00;100276.94;;;25.38;89.99
46846;BME280;33947;46.804;134.252;2023-07-28T12:17:15;100297.38;;;25.42;88.98
46846;BME280;33947;46.804;134.252;2023-07-28T12:20:24;100300.41;;;25.29;89.12
46846;BME280;33947;46.804;134.252;2023-07-28T12:23:29;100293.41;;;25.17;89.38
46846;BME280;33947;46.804;134.252;2023-07-28T12:26:37;100318.59;;;25.29;89.94
46846;BME280;33947;46.804;134.252;2023-07-28T12:29:43;100290.25;;;25.12;90.35
46846;BME280;33947;46.804;134.252;2023-07-28T12:32:50;100319.16;;;25.23;90.75
46846;BME280;33947;46.804;134.252;2023-07-28T12:35:58;100293.09;;;25.10;90.69
46846;BME280;33947;46.804;134.252;2023-07-28T12:39:22;100323.13;;;25.19;90.89
46846;BME280;33947;46.804;134.252;2023-07-28T12:42:30;100341.19;;;25.20;90.91
46846;BME280;33947;46.804;134.252;2023-07-28T12:45:37;100297.25;;;24.95;91.62
46846;BME280;33947;46.804;134.252;2023-07-28T12:48:44;100319.88;;;25.15;90.91
46846;BME280;33947;46.804;134.252;2023-07-28T12:51:50;100304.97;;;24.99;91.12
46846;BME280;33947;46.804;134.252;2023-07-28T12:54:58;100317.69;;;24.99;92.12
46846;BME280;33947;46.804;134.252;2023-07-28T12:58:05;100324.72;;;25.11;91.59
46846;BME280;33947;46.804;134.252;2023-07-28T13:01:29;100317.84;;;25.07;91.26
46846;BME280;33947;46.804;134.252;2023-07-28T13:04:34;100311.56;;;24.97;91.77
46846;BME280;33947;46.804;134.252;2023-07-28T13:07:40;100327.88;;;25.07;92.07
46846;BME280;33947;46.804;134.252;2023-07-28T13:10:48;100333.31;;;25.07;92.40
46846;BME280;33947;46.804;134.252;2023-07-28T13:13:56;100326.13;;;24.96;92.75
46846;BME280;33947;46.804;134.252;2023-07-28T13:17:00;100325.09;;;24.77;94.57
46846;BME280;33947;46.804;134.252;2023-07-28T13:20:05;100319.13;;;24.93;92.96
46846;BME280;33947;46.804;134.252;2023-07-28T13:23:09;100306.69;;;24.91;92.45
46846;BME280;33947;46.804;134.252;2023-07-28T13:26:14;100307.84;;;24.98;92.28
46846;BME280;33947;46.804;134.252;2023-07-28T13:29:20;100305.97;;;24.98;92.04
46846;BME280;33947;46.804;134.252;2023-07-28T13:32:25;100316.81;;;24.98;92.15
46846;BME280;33947;46.804;134.252;2023-07-28T13:35:30;100310.97;;;24.93;92.29
46846;BME280;33947;46.804;134.252;2023-07-28T13:38:42;100311.25;;;24.90;92.21
46846;BME280;33947;46.804;134.252;2023-07-28T13:41:46;100315.69;;;24.81;93.08
46846;BME280;33947;46.804;134.252;2023-07-28T13:44:50;100315.38;;;24.75;94.05
46846;BME280;33947;46.804;134.252;2023-07-28T13:47:57;100317.47;;;24.71;94.46
46846;BME280;33947;46.804;134.252;2023-07-28T13:51:02;100325.31;;;24.64;95.05
46846;BME280;33947;46.804;134.252;2023-07-28T13:54:06;100329.25;;;24.40;96.48
46846;BME280;33947;46.804;134.252;2023-07-28T13:57:14;100332.56;;;24.54;95.95
46846;BME280;33947;46.804;134.252;2023-07-28T14:00:18;100335.88;;;24.57;95.70
46846;BME280;33947;46.804;134.252;2023-07-28T14:03:23;100333.88;;;24.60;95.50
46846;BME280;33947;46.804;134.252;2023-07-28T14:06:28;100338.16;;;24.62;95.45
46846;BME280;33947;46.804;134.252;2023-07-28T14:09:32;100326.31;;;24.63;95.47
46846;BME280;33947;46.804;134.252;2023-07-28T14:12:37;100328.47;;;24.69;94.43
46846;BME280;33947;46.804;134.252;2023-07-28T14:15:41;100321.63;;;24.65;94.89
46846;BME280;33947;46.804;134.252;2023-07-28T14:18:46;100310.47;;;24.68;95.38
46846;BME280;33947;46.804;134.252;2023-07-28T14:21:52;100320.06;;;24.73;94.71
46846;BME280;33947;46.804;134.252;2023-07-28T14:24:57;100315.63;;;24.71;95.55
46846;BME280;33947;46.804;134.252;2023-07-28T14:28:01;100314.03;;;24.69;95.74
46846;BME280;33947;46.804;134.252;2023-07-28T14:31:06;100304.59;;;24.63;96.01
46846;BME280;33947;46.804;134.252;2023-07-28T14:34:11;100299.00;;;24.65;96.70
46846;BME280;33947;46.804;134.252;2023-07-28T14:37:15;100301.88;;;24.63;96.32
46846;BME280;33947;46.804;134.252;2023-07-28T14:40:20;100303.25;;;24.48;97.31
46846;BME280;33947;46.804;134.252;2023-07-28T14:43:25;100313.00;;;24.60;96.33
46846;BME280;33947;46.804;134.252;2023-07-28T14:46:30;100308.44;;;24.61;96.62
46846;BME280;33947;46.804;134.252;2023-07-28T14:49:35;100306.69;;;24.50;96.90
46846;BME280;33947;46.804;134.252;2023-07-28T14:52:39;100270.94;;;24.45;95.95
46846;BME280;33947;46.804;134.252;2023-07-28T14:55:44;100302.13;;;24.50;97.87
46846;BME280;33947;46.804;134.252;2023-07-28T14:58:48;100301.13;;;24.61;96.70
46846;BME280;33947;46.804;134.252;2023-07-28T15:01:54;100298.00;;;24.66;96.75
46846;BME280;33947;46.804;134.252;2023-07-28T15:04:58;100304.44;;;24.65;96.70
46846;BME280;33947;46.804;134.252;2023-07-28T15:08:05;100295.53;;;24.53;97.14
46846;BME280;33947;46.804;134.252;2023-07-28T15:11:10;100306.00;;;24.57;97.52
46846;BME280;33947;46.804;134.252;2023-07-28T15:14:15;100302.13;;;24.60;97.21
46846;BME280;33947;46.804;134.252;2023-07-28T15:17:20;100303.00;;;24.61;97.42
46846;BME280;33947;46.804;134.252;2023-07-28T15:20:25;100295.53;;;24.53;97.63
46846;BME280;33947;46.804;134.252;2023-07-28T15:23:30;100284.13;;;24.59;96.98
46846;BME280;33947;46.804;134.252;2023-07-28T15:26:34;100269.00;;;24.56;96.77
46846;BME280;33947;46.804;134.252;2023-07-28T15:29:40;100281.31;;;24.70;96.48
46846;BME280;33947;46.804;134.252;2023-07-28T15:32:44;100280.16;;;24.63;96.93
46846;BME280;33947;46.804;134.252;2023-07-28T15:35:49;100286.06;;;24.78;97.00
46846;BME280;33947;46.804;134.252;2023-07-28T15:38:54;100273.00;;;24.72;97.77
46846;BME280;33947;46.804;134.252;2023-07-28T15:41:58;100272.47;;;24.78;98.24
46846;BME280;33947;46.804;134.252;2023-07-28T15:45:03;100268.75;;;24.79;98.06
46846;BME280;33947;46.804;134.252;2023-07-28T15:48:07;100270.03;;;24.75;98.11
46846;BME280;33947;46.804;134.252;2023-07-28T15:51:13;100292.34;;;24.79;98.52
46846;BME280;33947;46.804;134.252;2023-07-28T15:54:17;100300.13;;;24.62;99.34
46846;BME280;33947;46.804;134.252;2023-07-28T15:57:21;100296.28;;;24.65;98.99
46846;BME280;33947;46.804;134.252;2023-07-28T16:00:26;100301.84;;;24.53;100.00
46846;BME280;33947;46.804;134.252;2023-07-28T16:03:31;100290.88;;;24.65;98.66
46846;BME280;33947;46.804;134.252;2023-07-28T16:06:38;100287.75;;;24.69;98.66
46846;BME280;33947;46.804;134.252;2023-07-28T16:09:43;100286.59;;;24.72;98.51